RJTA(METAR)
08/15 04:26
RJTA 141926Z 32003KT 7000 SCT005 27/25 Q1008 RMK 4ST005 A2978=
戻る
トップページへ戻る
IMOC Co,.Ltd.